sensor_id;sensor_type;location;lat;lon;timestamp;P1;durP1;ratioP1;P2;durP2;ratioP2
16436;SDS011;8328;52.206;21.006;2023-07-16T00:01:51;5.83;;;5.23;;
16436;SDS011;8328;52.206;21.006;2023-07-16T00:04:17;5.87;;;5.23;;
16436;SDS011;8328;52.206;21.006;2023-07-16T00:06:44;5.77;;;5.17;;
16436;SDS011;8328;52.206;21.006;2023-07-16T00:09:10;5.90;;;5.40;;
16436;SDS011;8328;52.206;21.006;2023-07-16T00:11:36;6.33;;;5.70;;
16436;SDS011;8328;52.206;21.006;2023-07-16T00:14:02;6.20;;;5.60;;
16436;SDS011;8328;52.206;21.006;2023-07-16T00:16:28;5.90;;;5.17;;
16436;SDS011;8328;52.206;21.006;2023-07-16T00:18:54;7.47;;;5.23;;
16436;SDS011;8328;52.206;21.006;2023-07-16T00:21:20;5.97;;;5.37;;
16436;SDS011;8328;52.206;21.006;2023-07-16T00:23:46;6.47;;;5.80;;
16436;SDS011;8328;52.206;21.006;2023-07-16T00:26:12;5.77;;;5.27;;
16436;SDS011;8328;52.206;21.006;2023-07-16T00:28:38;5.90;;;5.40;;
16436;SDS011;8328;52.206;21.006;2023-07-16T00:31:04;8.70;;;5.53;;
16436;SDS011;8328;52.206;21.006;2023-07-16T00:33:30;8.77;;;5.83;;
16436;SDS011;8328;52.206;21.006;2023-07-16T00:35:56;6.03;;;5.23;;
16436;SDS011;8328;52.206;21.006;2023-07-16T00:38:22;6.50;;;5.83;;
16436;SDS011;8328;52.206;21.006;2023-07-16T00:40:48;8.73;;;5.53;;
16436;SDS011;8328;52.206;21.006;2023-07-16T00:43:14;7.37;;;6.13;;
16436;SDS011;8328;52.206;21.006;2023-07-16T00:45:40;8.17;;;6.23;;
16436;SDS011;8328;52.206;21.006;2023-07-16T00:48:07;9.73;;;6.50;;
16436;SDS011;8328;52.206;21.006;2023-07-16T00:50:33;6.93;;;6.23;;
16436;SDS011;8328;52.206;21.006;2023-07-16T00:53:04;7.37;;;6.67;;
16436;SDS011;8328;52.206;21.006;2023-07-16T00:55:31;8.77;;;6.83;;
16436;SDS011;8328;52.206;21.006;2023-07-16T00:58:01;7.10;;;6.50;;
16436;SDS011;8328;52.206;21.006;2023-07-16T01:00:30;8.90;;;7.10;;
16436;SDS011;8328;52.206;21.006;2023-07-16T01:03:03;7.53;;;6.80;;
16436;SDS011;8328;52.206;21.006;2023-07-16T01:08:20;7.43;;;6.70;;
16436;SDS011;8328;52.206;21.006;2023-07-16T01:10:53;7.20;;;6.50;;
16436;SDS011;8328;52.206;21.006;2023-07-16T01:13:20;7.30;;;6.60;;
16436;SDS011;8328;52.206;21.006;2023-07-16T01:15:46;7.23;;;6.53;;
16436;SDS011;8328;52.206;21.006;2023-07-16T01:18:12;9.23;;;7.13;;
16436;SDS011;8328;52.206;21.006;2023-07-16T01:20:38;7.70;;;6.77;;
16436;SDS011;8328;52.206;21.006;2023-07-16T01:28:44;7.73;;;6.97;;
16436;SDS011;8328;52.206;21.006;2023-07-16T01:31:31;7.50;;;6.70;;
16436;SDS011;8328;52.206;21.006;2023-07-16T01:33:58;8.20;;;6.40;;
16436;SDS011;8328;52.206;21.006;2023-07-16T01:36:24;7.30;;;6.33;;
16436;SDS011;8328;52.206;21.006;2023-07-16T01:38:53;8.17;;;7.40;;
16436;SDS011;8328;52.206;21.006;2023-07-16T01:41:19;7.27;;;6.57;;
16436;SDS011;8328;52.206;21.006;2023-07-16T01:43:45;8.43;;;6.90;;
16436;SDS011;8328;52.206;21.006;2023-07-16T01:46:11;8.20;;;7.00;;
16436;SDS011;8328;52.206;21.006;2023-07-16T01:48:37;7.40;;;6.70;;
16436;SDS011;8328;52.206;21.006;2023-07-16T01:51:04;8.43;;;7.53;;
16436;SDS011;8328;52.206;21.006;2023-07-16T01:53:30;8.03;;;7.23;;
16436;SDS011;8328;52.206;21.006;2023-07-16T01:55:56;8.30;;;7.50;;
16436;SDS011;8328;52.206;21.006;2023-07-16T01:58:22;7.93;;;7.13;;
16436;SDS011;8328;52.206;21.006;2023-07-16T02:00:50;8.30;;;7.50;;
16436;SDS011;8328;52.206;21.006;2023-07-16T02:03:15;8.70;;;7.80;;
16436;SDS011;8328;52.206;21.006;2023-07-16T02:05:41;9.17;;;7.63;;
16436;SDS011;8328;52.206;21.006;2023-07-16T02:08:07;8.50;;;7.20;;
16436;SDS011;8328;52.206;21.006;2023-07-16T02:10:33;12.27;;;7.53;;
16436;SDS011;8328;52.206;21.006;2023-07-16T02:12:59;8.27;;;7.27;;
16436;SDS011;8328;52.206;21.006;2023-07-16T02:15:25;8.73;;;7.83;;
16436;SDS011;8328;52.206;21.006;2023-07-16T02:17:51;8.57;;;7.50;;
16436;SDS011;8328;52.206;21.006;2023-07-16T02:20:17;8.27;;;7.43;;
16436;SDS011;8328;52.206;21.006;2023-07-16T02:22:43;8.33;;;7.53;;
16436;SDS011;8328;52.206;21.006;2023-07-16T02:25:09;11.43;;;8.07;;
16436;SDS011;8328;52.206;21.006;2023-07-16T02:27:35;9.70;;;8.27;;
16436;SDS011;8328;52.206;21.006;2023-07-16T02:30:01;8.53;;;7.37;;
16436;SDS011;8328;52.206;21.006;2023-07-16T02:32:27;8.60;;;7.70;;
16436;SDS011;8328;52.206;21.006;2023-07-16T02:34:53;9.73;;;7.73;;
16436;SDS011;8328;52.206;21.006;2023-07-16T02:37:19;8.73;;;7.83;;
16436;SDS011;8328;52.206;21.006;2023-07-16T02:39:45;9.00;;;8.20;;
16436;SDS011;8328;52.206;21.006;2023-07-16T02:42:14;9.00;;;8.20;;
16436;SDS011;8328;52.206;21.006;2023-07-16T02:44:39;8.03;;;7.23;;
16436;SDS011;8328;52.206;21.006;2023-07-16T02:47:10;8.90;;;8.10;;
16436;SDS011;8328;52.206;21.006;2023-07-16T02:49:37;10.80;;;8.40;;
16436;SDS011;8328;52.206;21.006;2023-07-16T02:52:03;8.97;;;8.17;;
16436;SDS011;8328;52.206;21.006;2023-07-16T02:54:29;8.40;;;7.70;;
16436;SDS011;8328;52.206;21.006;2023-07-16T02:56:55;9.03;;;8.23;;
16436;SDS011;8328;52.206;21.006;2023-07-16T02:59:21;9.17;;;8.27;;
16436;SDS011;8328;52.206;21.006;2023-07-16T03:01:47;9.30;;;8.37;;
16436;SDS011;8328;52.206;21.006;2023-07-16T03:04:13;9.03;;;8.13;;
16436;SDS011;8328;52.206;21.006;2023-07-16T03:06:39;9.30;;;8.40;;
16436;SDS011;8328;52.206;21.006;2023-07-16T03:09:05;8.80;;;7.93;;
16436;SDS011;8328;52.206;21.006;2023-07-16T03:11:31;9.30;;;8.40;;
16436;SDS011;8328;52.206;21.006;2023-07-16T03:13:57;9.83;;;8.23;;
16436;SDS011;8328;52.206;21.006;2023-07-16T03:16:22;8.77;;;7.97;;
16436;SDS011;8328;52.206;21.006;2023-07-16T03:18:48;9.53;;;8.70;;
16436;SDS011;8328;52.206;21.006;2023-07-16T03:21:14;9.33;;;8.43;;
16436;SDS011;8328;52.206;21.006;2023-07-16T03:23:40;9.43;;;8.50;;
16436;SDS011;8328;52.206;21.006;2023-07-16T03:26:06;8.87;;;8.07;;
16436;SDS011;8328;52.206;21.006;2023-07-16T03:28:32;9.33;;;8.40;;
16436;SDS011;8328;52.206;21.006;2023-07-16T03:30:58;9.40;;;8.37;;
16436;SDS011;8328;52.206;21.006;2023-07-16T03:33:24;10.20;;;9.23;;
16436;SDS011;8328;52.206;21.006;2023-07-16T03:35:50;9.17;;;8.37;;
16436;SDS011;8328;52.206;21.006;2023-07-16T03:38:16;9.53;;;8.43;;
16436;SDS011;8328;52.206;21.006;2023-07-16T03:40:46;9.10;;;8.20;;
16436;SDS011;8328;52.206;21.006;2023-07-16T03:43:13;11.77;;;8.50;;
16436;SDS011;8328;52.206;21.006;2023-07-16T03:45:39;8.90;;;8.10;;
16436;SDS011;8328;52.206;21.006;2023-07-16T03:48:05;8.97;;;8.17;;
16436;SDS011;8328;52.206;21.006;2023-07-16T03:50:31;10.63;;;8.77;;
16436;SDS011;8328;52.206;21.006;2023-07-16T03:52:57;9.40;;;8.30;;
16436;SDS011;8328;52.206;21.006;2023-07-16T03:55:23;8.77;;;7.97;;
16436;SDS011;8328;52.206;21.006;2023-07-16T03:57:49;9.40;;;8.30;;
16436;SDS011;8328;52.206;21.006;2023-07-16T04:00:15;9.37;;;8.00;;
16436;SDS011;8328;52.206;21.006;2023-07-16T04:02:41;9.93;;;8.53;;
16436;SDS011;8328;52.206;21.006;2023-07-16T04:05:07;9.50;;;8.60;;
16436;SDS011;8328;52.206;21.006;2023-07-16T04:07:33;9.63;;;8.67;;
16436;SDS011;8328;52.206;21.006;2023-07-16T04:09:59;9.93;;;8.50;;
16436;SDS011;8328;52.206;21.006;2023-07-16T04:12:25;9.73;;;8.70;;
16436;SDS011;8328;52.206;21.006;2023-07-16T04:14:55;8.83;;;7.60;;
16436;SDS011;8328;52.206;21.006;2023-07-16T04:17:23;9.13;;;8.23;;
16436;SDS011;8328;52.206;21.006;2023-07-16T04:19:49;8.80;;;7.90;;
16436;SDS011;8328;52.206;21.006;2023-07-16T04:22:15;9.60;;;8.67;;
16436;SDS011;8328;52.206;21.006;2023-07-16T04:24:41;10.23;;;8.70;;
16436;SDS011;8328;52.206;21.006;2023-07-16T04:27:07;9.23;;;8.30;;
16436;SDS011;8328;52.206;21.006;2023-07-16T04:29:33;9.77;;;8.87;;
16436;SDS011;8328;52.206;21.006;2023-07-16T04:31:59;10.83;;;8.33;;
16436;SDS011;8328;52.206;21.006;2023-07-16T04:34:25;9.00;;;8.17;;
16436;SDS011;8328;52.206;21.006;2023-07-16T04:36:51;9.67;;;8.13;;
16436;SDS011;8328;52.206;21.006;2023-07-16T04:39:17;8.67;;;7.77;;
16436;SDS011;8328;52.206;21.006;2023-07-16T04:41:43;9.23;;;8.33;;
16436;SDS011;8328;52.206;21.006;2023-07-16T04:44:09;8.37;;;7.57;;
16436;SDS011;8328;52.206;21.006;2023-07-16T04:46:35;9.83;;;8.43;;
16436;SDS011;8328;52.206;21.006;2023-07-16T04:49:02;9.10;;;8.10;;
16436;SDS011;8328;52.206;21.006;2023-07-16T04:51:29;9.37;;;8.40;;
16436;SDS011;8328;52.206;21.006;2023-07-16T04:53:55;10.37;;;8.10;;
16436;SDS011;8328;52.206;21.006;2023-07-16T04:56:21;8.80;;;8.00;;
16436;SDS011;8328;52.206;21.006;2023-07-16T04:58:47;8.90;;;8.10;;
16436;SDS011;8328;52.206;21.006;2023-07-16T05:01:13;10.27;;;8.50;;
16436;SDS011;8328;52.206;21.006;2023-07-16T05:03:39;8.97;;;8.17;;
16436;SDS011;8328;52.206;21.006;2023-07-16T05:06:05;10.10;;;7.90;;
16436;SDS011;8328;52.206;21.006;2023-07-16T05:08:31;7.87;;;7.17;;
16436;SDS011;8328;52.206;21.006;2023-07-16T05:10:57;8.93;;;8.13;;
16436;SDS011;8328;52.206;21.006;2023-07-16T05:13:24;9.43;;;8.60;;
16436;SDS011;8328;52.206;21.006;2023-07-16T05:15:50;9.33;;;8.47;;
16436;SDS011;8328;52.206;21.006;2023-07-16T05:18:16;9.17;;;8.27;;
16436;SDS011;8328;52.206;21.006;2023-07-16T05:20:42;9.13;;;8.10;;
16436;SDS011;8328;52.206;21.006;2023-07-16T05:23:09;8.43;;;7.63;;
16436;SDS011;8328;52.206;21.006;2023-07-16T05:25:35;9.80;;;7.80;;
16436;SDS011;8328;52.206;21.006;2023-07-16T05:28:01;8.20;;;7.43;;
16436;SDS011;8328;52.206;21.006;2023-07-16T05:30:27;8.40;;;7.60;;
16436;SDS011;8328;52.206;21.006;2023-07-16T05:32:53;8.47;;;7.67;;
16436;SDS011;8328;52.206;21.006;2023-07-16T05:35:19;8.77;;;7.40;;
16436;SDS011;8328;52.206;21.006;2023-07-16T05:37:45;8.03;;;7.37;;
16436;SDS011;8328;52.206;21.006;2023-07-16T05:40:11;8.60;;;7.83;;
16436;SDS011;8328;52.206;21.006;2023-07-16T05:42:37;8.77;;;7.87;;
16436;SDS011;8328;52.206;21.006;2023-07-16T05:45:03;9.87;;;7.97;;
16436;SDS011;8328;52.206;21.006;2023-07-16T05:47:29;8.67;;;7.97;;
16436;SDS011;8328;52.206;21.006;2023-07-16T05:49:55;8.77;;;7.80;;
16436;SDS011;8328;52.206;21.006;2023-07-16T05:52:21;8.43;;;7.63;;
16436;SDS011;8328;52.206;21.006;2023-07-16T05:54:47;8.37;;;7.47;;
16436;SDS011;8328;52.206;21.006;2023-07-16T05:57:13;8.33;;;7.50;;
16436;SDS011;8328;52.206;21.006;2023-07-16T05:59:39;8.77;;;7.83;;
16436;SDS011;8328;52.206;21.006;2023-07-16T06:02:06;8.53;;;7.37;;
16436;SDS011;8328;52.206;21.006;2023-07-16T06:04:32;8.07;;;7.37;;
16436;SDS011;8328;52.206;21.006;2023-07-16T06:06:58;8.43;;;7.63;;
16436;SDS011;8328;52.206;21.006;2023-07-16T06:09:24;8.97;;;8.07;;
16436;SDS011;8328;52.206;21.006;2023-07-16T06:11:50;9.47;;;7.50;;
16436;SDS011;8328;52.206;21.006;2023-07-16T06:14:16;8.50;;;7.60;;
16436;SDS011;8328;52.206;21.006;2023-07-16T06:16:42;11.57;;;7.80;;
16436;SDS011;8328;52.206;21.006;2023-07-16T06:19:08;10.43;;;7.67;;
16436;SDS011;8328;52.206;21.006;2023-07-16T06:21:34;8.67;;;7.87;;
16436;SDS011;8328;52.206;21.006;2023-07-16T06:24:00;9.00;;;8.20;;
16436;SDS011;8328;52.206;21.006;2023-07-16T06:26:26;7.73;;;7.00;;
16436;SDS011;8328;52.206;21.006;2023-07-16T06:28:52;7.90;;;7.20;;
16436;SDS011;8328;52.206;21.006;2023-07-16T06:31:19;7.87;;;7.07;;
16436;SDS011;8328;52.206;21.006;2023-07-16T06:33:44;7.53;;;6.80;;
16436;SDS011;8328;52.206;21.006;2023-07-16T06:36:14;8.40;;;7.67;;
16436;SDS011;8328;52.206;21.006;2023-07-16T06:38:40;8.47;;;7.57;;
16436;SDS011;8328;52.206;21.006;2023-07-16T06:41:06;31.10;;;9.47;;
16436;SDS011;8328;52.206;21.006;2023-07-16T06:43:32;8.03;;;7.17;;
16436;SDS011;8328;52.206;21.006;2023-07-16T06:45:59;7.90;;;7.20;;
16436;SDS011;8328;52.206;21.006;2023-07-16T06:48:25;8.03;;;7.07;;
16436;SDS011;8328;52.206;21.006;2023-07-16T06:50:51;7.80;;;7.00;;
16436;SDS011;8328;52.206;21.006;2023-07-16T06:53:17;7.63;;;6.93;;
16436;SDS011;8328;52.206;21.006;2023-07-16T06:55:43;7.37;;;6.67;;
16436;SDS011;8328;52.206;21.006;2023-07-16T06:58:10;7.67;;;6.93;;
16436;SDS011;8328;52.206;21.006;2023-07-16T07:00:36;7.87;;;7.17;;
16436;SDS011;8328;52.206;21.006;2023-07-16T07:03:02;7.57;;;6.87;;
16436;SDS011;8328;52.206;21.006;2023-07-16T07:05:28;7.10;;;6.50;;
16436;SDS011;8328;52.206;21.006;2023-07-16T07:07:53;6.87;;;6.20;;
16436;SDS011;8328;52.206;21.006;2023-07-16T07:10:19;6.80;;;6.10;;
16436;SDS011;8328;52.206;21.006;2023-07-16T07:12:46;6.87;;;6.07;;
16436;SDS011;8328;52.206;21.006;2023-07-16T07:15:11;7.33;;;6.60;;
16436;SDS011;8328;52.206;21.006;2023-07-16T07:17:37;6.77;;;6.00;;
16436;SDS011;8328;52.206;21.006;2023-07-16T07:20:04;6.83;;;6.13;;
16436;SDS011;8328;52.206;21.006;2023-07-16T07:22:30;6.73;;;5.77;;
16436;SDS011;8328;52.206;21.006;2023-07-16T07:24:56;6.80;;;6.20;;
16436;SDS011;8328;52.206;21.006;2023-07-16T07:27:22;6.93;;;5.97;;
16436;SDS011;8328;52.206;21.006;2023-07-16T07:29:48;7.33;;;6.30;;
16436;SDS011;8328;52.206;21.006;2023-07-16T07:32:17;6.80;;;6.10;;
16436;SDS011;8328;52.206;21.006;2023-07-16T07:34:47;6.33;;;5.73;;
16436;SDS011;8328;52.206;21.006;2023-07-16T07:37:13;7.03;;;6.00;;
16436;SDS011;8328;52.206;21.006;2023-07-16T07:39:39;5.97;;;5.37;;
16436;SDS011;8328;52.206;21.006;2023-07-16T07:42:05;6.43;;;5.93;;
16436;SDS011;8328;52.206;21.006;2023-07-16T07:44:31;7.53;;;5.97;;
16436;SDS011;8328;52.206;21.006;2023-07-16T07:46:57;6.30;;;5.80;;
16436;SDS011;8328;52.206;21.006;2023-07-16T07:49:23;7.77;;;5.73;;
16436;SDS011;8328;52.206;21.006;2023-07-16T07:51:49;6.73;;;5.80;;
16436;SDS011;8328;52.206;21.006;2023-07-16T07:54:15;6.20;;;5.60;;
16436;SDS011;8328;52.206;21.006;2023-07-16T07:56:42;6.20;;;5.60;;
16436;SDS011;8328;52.206;21.006;2023-07-16T07:59:07;6.30;;;5.70;;
16436;SDS011;8328;52.206;21.006;2023-07-16T08:01:33;6.77;;;5.50;;
16436;SDS011;8328;52.206;21.006;2023-07-16T08:04:01;7.03;;;5.40;;
16436;SDS011;8328;52.206;21.006;2023-07-16T08:06:26;5.53;;;5.03;;
16436;SDS011;8328;52.206;21.006;2023-07-16T08:08:52;5.90;;;5.40;;
16436;SDS011;8328;52.206;21.006;2023-07-16T08:11:18;5.60;;;5.10;;
16436;SDS011;8328;52.206;21.006;2023-07-16T08:13:45;5.57;;;5.00;;
16436;SDS011;8328;52.206;21.006;2023-07-16T08:16:11;5.27;;;4.77;;
16436;SDS011;8328;52.206;21.006;2023-07-16T08:18:37;6.30;;;5.70;;
16436;SDS011;8328;52.206;21.006;2023-07-16T08:21:03;5.50;;;4.97;;
16436;SDS011;8328;52.206;21.006;2023-07-16T08:23:28;6.70;;;5.07;;
16436;SDS011;8328;52.206;21.006;2023-07-16T08:25:55;5.57;;;5.07;;
16436;SDS011;8328;52.206;21.006;2023-07-16T08:28:20;5.70;;;5.20;;
16436;SDS011;8328;52.206;21.006;2023-07-16T08:30:47;5.10;;;4.60;;
16436;SDS011;8328;52.206;21.006;2023-07-16T08:33:13;5.93;;;4.87;;
16436;SDS011;8328;52.206;21.006;2023-07-16T08:35:39;6.10;;;4.73;;
16436;SDS011;8328;52.206;21.006;2023-07-16T08:38:06;7.00;;;4.90;;
16436;SDS011;8328;52.206;21.006;2023-07-16T08:40:36;8.07;;;4.90;;
16436;SDS011;8328;52.206;21.006;2023-07-16T08:43:02;6.70;;;4.27;;
16436;SDS011;8328;52.206;21.006;2023-07-16T08:45:29;5.73;;;4.30;;
16436;SDS011;8328;52.206;21.006;2023-07-16T08:47:55;6.00;;;4.53;;
16436;SDS011;8328;52.206;21.006;2023-07-16T08:50:21;5.80;;;4.50;;
16436;SDS011;8328;52.206;21.006;2023-07-16T08:52:48;6.93;;;4.57;;
16436;SDS011;8328;52.206;21.006;2023-07-16T08:55:14;5.47;;;4.50;;
16436;SDS011;8328;52.206;21.006;2023-07-16T08:57:40;4.63;;;4.20;;
16436;SDS011;8328;52.206;21.006;2023-07-16T09:00:07;5.10;;;3.87;;
16436;SDS011;8328;52.206;21.006;2023-07-16T09:02:34;6.43;;;4.13;;
16436;SDS011;8328;52.206;21.006;2023-07-16T09:05:00;6.60;;;4.47;;
16436;SDS011;8328;52.206;21.006;2023-07-16T09:07:26;6.80;;;4.80;;
16436;SDS011;8328;52.206;21.006;2023-07-16T09:09:56;7.67;;;4.80;;
16436;SDS011;8328;52.206;21.006;2023-07-16T09:12:25;4.60;;;4.20;;
16436;SDS011;8328;52.206;21.006;2023-07-16T09:14:51;7.77;;;4.33;;
16436;SDS011;8328;52.206;21.006;2023-07-16T09:17:24;4.47;;;4.07;;
16436;SDS011;8328;52.206;21.006;2023-07-16T09:19:50;5.17;;;4.30;;
16436;SDS011;8328;52.206;21.006;2023-07-16T09:22:17;4.37;;;3.97;;
16436;SDS011;8328;52.206;21.006;2023-07-16T09:24:44;6.43;;;4.20;;
16436;SDS011;8328;52.206;21.006;2023-07-16T09:27:11;4.90;;;4.20;;
16436;SDS011;8328;52.206;21.006;2023-07-16T09:29:38;4.87;;;4.37;;
16436;SDS011;8328;52.206;21.006;2023-07-16T09:32:04;5.10;;;4.37;;
16436;SDS011;8328;52.206;21.006;2023-07-16T09:34:30;4.37;;;3.97;;
16436;SDS011;8328;52.206;21.006;2023-07-16T09:36:57;4.60;;;4.13;;
16436;SDS011;8328;52.206;21.006;2023-07-16T09:39:23;4.77;;;4.30;;
16436;SDS011;8328;52.206;21.006;2023-07-16T09:41:51;4.63;;;4.23;;
16436;SDS011;8328;52.206;21.006;2023-07-16T09:44:17;5.30;;;4.67;;
16436;SDS011;8328;52.206;21.006;2023-07-16T09:46:44;6.90;;;4.53;;
16436;SDS011;8328;52.206;21.006;2023-07-16T09:49:10;5.30;;;4.80;;
16436;SDS011;8328;52.206;21.006;2023-07-16T09:51:37;4.77;;;4.37;;
16436;SDS011;8328;52.206;21.006;2023-07-16T09:54:03;6.63;;;4.80;;
16436;SDS011;8328;52.206;21.006;2023-07-16T09:56:35;5.13;;;4.57;;
16436;SDS011;8328;52.206;21.006;2023-07-16T09:59:17;5.30;;;4.80;;
16436;SDS011;8328;52.206;21.006;2023-07-16T10:01:46;5.60;;;4.70;;
16436;SDS011;8328;52.206;21.006;2023-07-16T10:04:13;4.50;;;4.10;;
16436;SDS011;8328;52.206;21.006;2023-07-16T10:06:50;5.87;;;4.03;;
16436;SDS011;8328;52.206;21.006;2023-07-16T10:09:32;4.50;;;4.10;;
16436;SDS011;8328;52.206;21.006;2023-07-16T10:12:11;5.13;;;4.23;;
16436;SDS011;8328;52.206;21.006;2023-07-16T10:14:43;5.43;;;4.10;;
16436;SDS011;8328;52.206;21.006;2023-07-16T10:17:22;6.23;;;4.53;;
16436;SDS011;8328;52.206;21.006;2023-07-16T10:19:59;5.03;;;4.30;;
16436;SDS011;8328;52.206;21.006;2023-07-16T10:22:46;9.60;;;5.03;;
16436;SDS011;8328;52.206;21.006;2023-07-16T10:27:44;5.93;;;4.13;;
16436;SDS011;8328;52.206;21.006;2023-07-16T10:30:12;4.60;;;4.17;;
16436;SDS011;8328;52.206;21.006;2023-07-16T10:32:38;4.97;;;4.57;;
16436;SDS011;8328;52.206;21.006;2023-07-16T10:35:04;4.53;;;4.13;;
16436;SDS011;8328;52.206;21.006;2023-07-16T10:37:31;6.20;;;4.73;;
16436;SDS011;8328;52.206;21.006;2023-07-16T10:39:59;6.87;;;4.90;;
16436;SDS011;8328;52.206;21.006;2023-07-16T10:42:26;6.53;;;5.70;;
16436;SDS011;8328;52.206;21.006;2023-07-16T10:44:53;6.23;;;5.30;;
16436;SDS011;8328;52.206;21.006;2023-07-16T10:47:24;7.10;;;5.20;;
16436;SDS011;8328;52.206;21.006;2023-07-16T10:49:54;5.78;;;5.15;;
16436;SDS011;8328;52.206;21.006;2023-07-16T10:52:22;6.03;;;5.45;;
16436;SDS011;8328;52.206;21.006;2023-07-16T10:54:49;5.88;;;4.82;;
16436;SDS011;8328;52.206;21.006;2023-07-16T10:57:19;5.78;;;5.18;;
16436;SDS011;8328;52.206;21.006;2023-07-16T10:59:46;6.63;;;5.25;;
16436;SDS011;8328;52.206;21.006;2023-07-16T11:02:14;6.88;;;5.55;;
16436;SDS011;8328;52.206;21.006;2023-07-16T11:04:41;7.32;;;5.20;;
16436;SDS011;8328;52.206;21.006;2023-07-16T11:07:08;6.28;;;5.40;;
16436;SDS011;8328;52.206;21.006;2023-07-16T11:09:48;6.32;;;4.93;;
16436;SDS011;8328;52.206;21.006;2023-07-16T11:12:16;6.50;;;5.15;;
16436;SDS011;8328;52.206;21.006;2023-07-16T11:14:44;5.90;;;5.25;;
16436;SDS011;8328;52.206;21.006;2023-07-16T11:17:12;5.68;;;5.07;;
16436;SDS011;8328;52.206;21.006;2023-07-16T11:19:39;5.47;;;5.00;;
16436;SDS011;8328;52.206;21.006;2023-07-16T11:22:07;6.95;;;5.28;;
16436;SDS011;8328;52.206;21.006;2023-07-16T11:24:43;7.28;;;6.68;;
16436;SDS011;8328;52.206;21.006;2023-07-16T11:27:13;5.55;;;5.05;;
16436;SDS011;8328;52.206;21.006;2023-07-16T11:29:51;5.43;;;4.93;;
16436;SDS011;8328;52.206;21.006;2023-07-16T11:32:27;7.75;;;5.25;;
16436;SDS011;8328;52.206;21.006;2023-07-16T11:35:07;6.18;;;4.70;;
16436;SDS011;8328;52.206;21.006;2023-07-16T11:37:34;8.80;;;5.20;;
16436;SDS011;8328;52.206;21.006;2023-07-16T11:40:04;5.00;;;4.60;;
16436;SDS011;8328;52.206;21.006;2023-07-16T11:42:32;7.88;;;6.32;;
16436;SDS011;8328;52.206;21.006;2023-07-16T11:45:02;7.32;;;5.07;;
16436;SDS011;8328;52.206;21.006;2023-07-16T11:47:29;9.55;;;8.52;;
16436;SDS011;8328;52.206;21.006;2023-07-16T11:49:56;7.90;;;6.93;;
16436;SDS011;8328;52.206;21.006;2023-07-16T11:52:23;7.55;;;5.45;;
16436;SDS011;8328;52.206;21.006;2023-07-16T11:54:53;7.07;;;4.80;;
16436;SDS011;8328;52.206;21.006;2023-07-16T11:57:19;7.35;;;5.25;;
16436;SDS011;8328;52.206;21.006;2023-07-16T11:59:45;7.40;;;5.15;;
16436;SDS011;8328;52.206;21.006;2023-07-16T12:02:11;5.40;;;4.90;;
16436;SDS011;8328;52.206;21.006;2023-07-16T12:04:38;7.63;;;7.00;;
16436;SDS011;8328;52.206;21.006;2023-07-16T12:07:04;6.28;;;5.65;;
16436;SDS011;8328;52.206;21.006;2023-07-16T12:09:29;5.65;;;5.15;;
16436;SDS011;8328;52.206;21.006;2023-07-16T12:11:56;6.25;;;5.63;;
16436;SDS011;8328;52.206;21.006;2023-07-16T12:14:22;5.63;;;5.13;;
16436;SDS011;8328;52.206;21.006;2023-07-16T12:16:47;7.65;;;5.22;;
16436;SDS011;8328;52.206;21.006;2023-07-16T12:19:13;5.45;;;4.95;;
16436;SDS011;8328;52.206;21.006;2023-07-16T12:21:39;8.15;;;5.13;;
16436;SDS011;8328;52.206;21.006;2023-07-16T12:24:05;6.18;;;4.82;;
16436;SDS011;8328;52.206;21.006;2023-07-16T12:26:31;6.38;;;5.05;;
16436;SDS011;8328;52.206;21.006;2023-07-16T12:28:56;6.32;;;5.57;;
16436;SDS011;8328;52.206;21.006;2023-07-16T12:31:22;5.25;;;4.85;;
16436;SDS011;8328;52.206;21.006;2023-07-16T12:33:48;5.35;;;4.95;;
16436;SDS011;8328;52.206;21.006;2023-07-16T12:36:14;8.55;;;4.70;;
16436;SDS011;8328;52.206;21.006;2023-07-16T12:38:41;8.60;;;4.50;;
16436;SDS011;8328;52.206;21.006;2023-07-16T12:41:07;5.82;;;4.18;;
16436;SDS011;8328;52.206;21.006;2023-07-16T12:43:33;9.35;;;4.10;;
16436;SDS011;8328;52.206;21.006;2023-07-16T12:46:00;4.90;;;4.50;;
16436;SDS011;8328;52.206;21.006;2023-07-16T12:48:27;10.55;;;9.48;;
16436;SDS011;8328;52.206;21.006;2023-07-16T12:50:54;6.72;;;6.15;;
16436;SDS011;8328;52.206;21.006;2023-07-16T12:53:19;4.93;;;4.53;;
16436;SDS011;8328;52.206;21.006;2023-07-16T12:55:45;5.40;;;4.15;;
16436;SDS011;8328;52.206;21.006;2023-07-16T12:58:11;5.65;;;4.13;;
16436;SDS011;8328;52.206;21.006;2023-07-16T13:00:37;5.72;;;3.90;;
16436;SDS011;8328;52.206;21.006;2023-07-16T13:03:02;4.68;;;4.25;;
16436;SDS011;8328;52.206;21.006;2023-07-16T13:05:29;4.43;;;4.00;;
16436;SDS011;8328;52.206;21.006;2023-07-16T13:07:55;4.78;;;4.38;;
16436;SDS011;8328;52.206;21.006;2023-07-16T13:10:21;5.05;;;4.10;;
16436;SDS011;8328;52.206;21.006;2023-07-16T13:12:47;4.53;;;3.75;;
16436;SDS011;8328;52.206;21.006;2023-07-16T13:15:13;5.53;;;4.90;;
16436;SDS011;8328;52.206;21.006;2023-07-16T13:17:38;4.85;;;4.00;;
16436;SDS011;8328;52.206;21.006;2023-07-16T13:20:05;7.05;;;3.92;;
16436;SDS011;8328;52.206;21.006;2023-07-16T13:22:31;7.30;;;3.58;;
16436;SDS011;8328;52.206;21.006;2023-07-16T13:24:57;3.55;;;3.17;;
16436;SDS011;8328;52.206;21.006;2023-07-16T13:27:24;3.25;;;2.83;;
16436;SDS011;8328;52.206;21.006;2023-07-16T13:29:50;3.60;;;3.20;;
16436;SDS011;8328;52.206;21.006;2023-07-16T13:32:16;4.35;;;3.22;;
16436;SDS011;8328;52.206;21.006;2023-07-16T13:34:42;4.50;;;3.10;;
16436;SDS011;8328;52.206;21.006;2023-07-16T13:37:09;4.78;;;3.20;;
16436;SDS011;8328;52.206;21.006;2023-07-16T13:39:35;3.60;;;3.30;;
16436;SDS011;8328;52.206;21.006;2023-07-16T13:42:01;3.17;;;2.97;;
16436;SDS011;8328;52.206;21.006;2023-07-16T13:44:27;4.97;;;3.13;;
16436;SDS011;8328;52.206;21.006;2023-07-16T13:46:52;3.75;;;3.42;;
16436;SDS011;8328;52.206;21.006;2023-07-16T13:49:19;4.68;;;3.33;;
16436;SDS011;8328;52.206;21.006;2023-07-16T13:51:45;4.47;;;3.03;;
16436;SDS011;8328;52.206;21.006;2023-07-16T13:54:11;3.50;;;3.20;;
16436;SDS011;8328;52.206;21.006;2023-07-16T13:56:37;3.55;;;3.25;;
16436;SDS011;8328;52.206;21.006;2023-07-16T13:59:03;3.50;;;3.20;;
16436;SDS011;8328;52.206;21.006;2023-07-16T14:01:29;3.63;;;3.35;;
16436;SDS011;8328;52.206;21.006;2023-07-16T14:03:55;3.53;;;3.22;;
16436;SDS011;8328;52.206;21.006;2023-07-16T14:06:26;3.50;;;2.90;;
16436;SDS011;8328;52.206;21.006;2023-07-16T14:08:52;6.47;;;3.20;;
16436;SDS011;8328;52.206;21.006;2023-07-16T14:11:18;3.67;;;3.00;;
16436;SDS011;8328;52.206;21.006;2023-07-16T14:13:44;2.95;;;2.75;;
16436;SDS011;8328;52.206;21.006;2023-07-16T14:16:13;5.95;;;3.17;;
16436;SDS011;8328;52.206;21.006;2023-07-16T14:18:38;4.53;;;3.13;;
16436;SDS011;8328;52.206;21.006;2023-07-16T14:21:04;7.57;;;3.17;;
16436;SDS011;8328;52.206;21.006;2023-07-16T14:23:30;3.08;;;2.78;;
16436;SDS011;8328;52.206;21.006;2023-07-16T14:25:56;3.97;;;2.70;;
16436;SDS011;8328;52.206;21.006;2023-07-16T14:28:22;4.05;;;2.95;;
16436;SDS011;8328;52.206;21.006;2023-07-16T14:30:48;3.40;;;3.10;;
16436;SDS011;8328;52.206;21.006;2023-07-16T14:33:14;4.57;;;2.92;;
16436;SDS011;8328;52.206;21.006;2023-07-16T14:35:39;3.30;;;2.95;;
16436;SDS011;8328;52.206;21.006;2023-07-16T14:38:05;4.50;;;3.00;;
16436;SDS011;8328;52.206;21.006;2023-07-16T14:40:31;4.22;;;2.90;;
16436;SDS011;8328;52.206;21.006;2023-07-16T14:42:57;3.10;;;2.90;;
16436;SDS011;8328;52.206;21.006;2023-07-16T14:45:23;3.00;;;2.70;;
16436;SDS011;8328;52.206;21.006;2023-07-16T14:47:49;5.50;;;2.97;;
16436;SDS011;8328;52.206;21.006;2023-07-16T14:50:16;3.97;;;2.90;;
16436;SDS011;8328;52.206;21.006;2023-07-16T14:52:42;3.00;;;2.63;;
16436;SDS011;8328;52.206;21.006;2023-07-16T14:55:08;4.50;;;2.83;;
16436;SDS011;8328;52.206;21.006;2023-07-16T14:57:34;2.90;;;2.70;;